• Join FlightAware (Why Join?)
  • Login
  • US Flag 
12:39AM EDT


 

Airport Tracker/Info


-or-


 

Live Flight TrackerFlight Track Log ✈ N447MB ✈ 17-Jun-2013 ✈ KACK - KHPN

Flight Track Log - Related Links

Times and Time Zones

All times are in EDT time to prevent confusion due to time zone crossing. See the N447MB flight status page for this flight to view local times or setup timezone preferences in your user account.

Time Position Orientation Groundspeed Altitude Reporting Facility
EDT Latitude Longitude Course Direction KTS MPH feet Rate Location/Type
08:21AM 41.3051 -70.3012 291° West  Level FlightAware Approximate
08:22AM 41.3185 -70.3481 291° West  Level FlightAware Approximate
08:23AM 41.3319 -70.3950 291° West  Level FlightAware Approximate
08:24AM 41.3406 -70.4431 290° West  Level FlightAware Approximate
08:25AM 41.3535 -70.4903 290° West  Level FlightAware Approximate
08:26AM 41.3663 -70.5375 290° West  Level FlightAware Approximate
08:27AM 41.3792 -70.5847 290° West  Level FlightAware Approximate
08:28AM 41.3756 -70.6323 252° West  Level FlightAware Approximate
08:29AM 41.3642 -70.6802 252° West  Level FlightAware Approximate
08:29AM 41.2017 -70.8731 252° West 142 163 6,600  Level Boston Center
08:30AM 41.3528 -70.7281 252° West  Level FlightAware Approximate
08:30AM 41.2003 -70.9339 268° West 145 167 6,600  Level Boston Center
08:31AM 41.3413 -70.7759 252° West  Level FlightAware Approximate
08:31AM 41.1969 -70.9864 265° West 147 169 6,600  Level Boston Center
08:32AM 41.3299 -70.8237 252° West  Level FlightAware Approximate
08:33AM 41.3184 -70.8715 252° West  Level FlightAware Approximate
08:33AM 41.1933 -71.0442 265° West 144 166 6,600  Level Boston Center
08:34AM 41.3069 -70.9192 252° West  Level FlightAware Approximate
08:34AM 41.1919 -71.0994 268° West 143 165 6,600  Level Boston Center
08:34AM 41.1906 -71.1492 268° West 146 168 6,600  Level Boston Center
08:36AM 41.1869 -71.2156 266° West 144 166 6,600  Level Boston Center
08:37AM 41.1875 -71.2650 271° West 142 163 6,600  Level Boston Center
08:38AM 41.1819 -71.3203 262° West 143 165 6,600  Level Boston Center
08:39AM 41.1803 -71.3672 267° West 143 165 6,600  Level Boston Center
08:40AM 41.1786 -71.4197 268° West 144 166 6,600  Level Boston Center
08:41AM 41.1769 -71.4694 267° West 143 165 6,600  Level Boston Center
08:42AM 41.1775 -71.5217 271° West 142 163 6,600  Level Boston Center
08:43AM 41.1717 -71.5769 262° West 143 165 6,600  Level Boston Center
08:44AM 41.1719 -71.6267 270° West 142 163 6,600  Level Boston Center
08:45AM 41.1683 -71.6792 265° West 142 163 6,600  Level Boston Center
08:46AM 41.1664 -71.7342 267° West 140 161 6,600  Level Boston Center
08:47AM 41.1647 -71.7867 268° West 147 169 6,600  Level Boston Center
08:48AM 41.1650 -71.8417 270° West 139 160 6,600  Level Boston Center
08:49AM 41.1592 -71.8942 262° West 140 161 6,600  Level Boston Center
08:50AM 41.1572 -71.9439 267° West 138 159 6,600  Level Boston Center
08:51AM 41.1553 -71.9989 267° West 142 163 6,600  Level Boston Center
08:52AM 41.1533 -72.0514 267° West 141 162 6,600  Level Boston Center
08:53AM 41.1517 -72.1039 268° West 139 160 6,600  Level Boston Center
08:54AM 41.1456 -72.1561 261° West 142 163 6,600  Level Boston Center
08:55AM 41.1456 -72.2086 270° West 140 161 6,600  Level Boston Center
08:57AM 41.1333 -72.3000 260° West 142 163 6,600  Level New York TRACON
08:58AM 41.1333 -72.3500 270° West 141 162 6,600  Level New York TRACON
08:59AM 41.1333 -72.4000 270° West 139 160 6,600  Level New York TRACON
08:59AM 41.1333 -72.4500 270° West 138 159 6,600  Level New York TRACON
09:01AM 41.1333 -72.5000 270° West 140 161 6,600  Level New York TRACON
09:02AM 41.1333 -72.5500 270° West 139 160 6,600  Level New York TRACON
09:03AM 41.1333 -72.6000 270° West 136 157 6,600  Level New York TRACON
09:04AM 41.1167 -72.6500 246° West 136 157 6,600  Level New York TRACON
09:05AM 41.1203 -72.6998 276° West  Level FlightAware Approximate
09:06AM 41.1167 -72.7500 276° West 142 163 6,600  Level New York TRACON
09:07AM 41.1213 -72.7997 277° West  Level FlightAware Approximate
09:08AM 41.1167 -72.8500 277° West 143 165 6,600  Level New York TRACON
09:09AM 41.1167 -72.9000 270° West 148 170 6,600  Level New York TRACON
09:10AM 41.1167 -72.9667 270° West 148 170 6,600  Level New York TRACON
09:11AM 41.1000 -73.0167 246° West 146 168 6,600  Level New York TRACON
09:12AM 41.1000 -73.0667 270° West 147 169 6,600  Level New York TRACON
09:13AM 41.1000 -73.1167 270° West 148 170 6,600  Level New York TRACON
09:14AM 41.1000 -73.1667 270° West 146 168 6,600  Level New York TRACON
09:15AM 41.1000 -73.2333 270° West 146 168 6,600 -120 Level New York TRACON
09:16AM 41.0833 -73.2833 246° West 151 174 6,400 -420 Descending New York TRACON
09:17AM 41.0833 -73.3500 270° West 165 190 5,800 -840 Descending New York TRACON
09:18AM 41.0833 -73.4000 270° West 175 201 4,800 -960 Descending New York TRACON
09:19AM 41.0833 -73.4667 270° West 180 207 3,900 -900 Descending New York TRACON
09:20AM 41.1000 -73.5333 288° West 181 208 3,000 -780 Descending New York TRACON
09:20AM 41.0667 -73.5667 217° Southwest 180 207 2,500 -480 Descending New York TRACON
09:21AM 41.0333 -73.5500 159° South 171 197 2,100 -300 Descending New York TRACON
09:22AM 41.0000 -73.5667 201° Southwest 154 177 2,000 -240 Descending New York TRACON
09:23AM 41.0167 -73.6167 294° West 147 169 1,700 -300 Descending New York TRACON
09:24AM 41.0333 -73.6667 294° West 142 163 1,500 -540 Descending New York TRACON
09:25AM 41.0500 -73.7000 304° West 117 135 700 -840 Descending New York TRACON
09:27AM 41.0669 -73.7076 341° North  Level Estimated
09:34AM 41.0669 -73.7076 37° Northeast  Level Estimated
09:35AM 41.0669 -73.7076 37° Northeast  Level Estimated